createdAt,value
2023-02-16T00:01:36.712Z,22.04
2023-02-16T00:04:19.370Z,22.08
2023-02-16T00:06:50.162Z,22.02
2023-02-16T00:09:21.272Z,22.04
2023-02-16T00:12:12.064Z,22.00
2023-02-16T00:14:42.300Z,21.93
2023-02-16T00:17:13.486Z,21.91
2023-02-16T00:19:44.128Z,21.80
2023-02-16T00:22:14.340Z,21.78
2023-02-16T00:24:45.203Z,21.75
2023-02-16T00:27:19.732Z,21.73
2023-02-16T00:29:49.756Z,21.71
2023-02-16T00:32:21.185Z,21.74
2023-02-16T00:34:51.260Z,21.70
2023-02-16T00:37:21.432Z,21.67
2023-02-16T00:39:52.171Z,21.71
2023-02-16T00:42:26.782Z,21.71
2023-02-16T00:44:59.594Z,21.65
2023-02-16T00:47:32.962Z,21.60
2023-02-16T00:50:03.516Z,21.54
2023-02-16T00:52:44.818Z,21.51
2023-02-16T00:55:20.663Z,21.49
2023-02-16T00:57:56.483Z,21.46
2023-02-16T01:00:43.820Z,21.39
2023-02-16T01:03:22.023Z,21.34
2023-02-16T01:06:11.988Z,21.33
2023-02-16T01:09:00.728Z,21.30
2023-02-16T01:11:30.945Z,21.27
2023-02-16T01:14:02.038Z,21.20
2023-02-16T01:16:43.809Z,21.26
2023-02-16T01:19:15.579Z,21.23
2023-02-16T01:21:46.370Z,21.19
2023-02-16T01:24:18.181Z,21.20
2023-02-16T01:26:52.568Z,21.16
2023-02-16T01:29:24.303Z,21.13
2023-02-16T01:31:54.612Z,21.12
2023-02-16T01:34:27.224Z,21.07
2023-02-16T01:37:00.629Z,21.12
2023-02-16T01:39:31.276Z,21.00
2023-02-16T01:42:01.678Z,20.99
2023-02-16T01:44:40.616Z,20.98
2023-02-16T01:47:27.476Z,20.95
2023-02-16T01:49:59.740Z,20.92
2023-02-16T01:52:39.621Z,20.92
2023-02-16T01:55:23.581Z,20.92
2023-02-16T01:58:21.558Z,20.92
2023-02-16T02:00:51.564Z,20.89
2023-02-16T02:03:54.876Z,20.94
2023-02-16T02:06:32.699Z,20.88
2023-02-16T02:09:09.781Z,20.79
2023-02-16T02:11:51.514Z,20.79
2023-02-16T02:14:28.019Z,20.72
2023-02-16T02:17:01.910Z,20.69
2023-02-16T02:19:47.840Z,20.69
2023-02-16T02:23:04.915Z,20.67
2023-02-16T02:26:01.608Z,20.64
2023-02-16T02:29:02.861Z,20.61
2023-02-16T02:31:51.798Z,20.57
2023-02-16T02:34:50.840Z,20.55
2023-02-16T02:37:31.979Z,20.54
2023-02-16T02:40:14.523Z,20.48
2023-02-16T02:42:50.134Z,20.41
2023-02-16T02:45:25.647Z,20.41
2023-02-16T02:47:55.979Z,20.38
2023-02-16T02:51:11.236Z,20.37
2023-02-16T02:54:32.020Z,20.35
2023-02-16T02:57:30.674Z,20.33
2023-02-16T03:00:44.977Z,20.34
2023-02-16T03:03:28.775Z,20.34
2023-02-16T03:05:59.340Z,20.34
2023-02-16T03:08:33.069Z,20.33
2023-02-16T03:11:33.826Z,20.30
2023-02-16T03:14:32.713Z,20.26
2023-02-16T03:17:25.413Z,20.17
2023-02-16T03:20:14.106Z,20.14
2023-02-16T03:23:04.092Z,20.07
2023-02-16T03:25:55.672Z,20.06
2023-02-16T03:28:47.828Z,20.03
2023-02-16T03:31:25.362Z,20.03
2023-02-16T03:33:55.756Z,20.05
2023-02-16T03:36:27.262Z,20.03
2023-02-16T03:38:59.779Z,19.96
2023-02-16T03:41:34.721Z,19.96
2023-02-16T03:44:04.473Z,19.94
2023-02-16T03:46:34.358Z,19.90
2023-02-16T03:49:04.100Z,19.93
2023-02-16T03:51:33.942Z,19.87
2023-02-16T03:54:03.653Z,19.80
2023-02-16T03:56:33.592Z,19.79
2023-02-16T03:59:03.202Z,19.83
2023-02-16T04:01:33.030Z,19.79
2023-02-16T04:04:02.721Z,19.77
2023-02-16T04:06:33.586Z,19.72
2023-02-16T04:09:03.565Z,19.73
2023-02-16T04:11:51.399Z,19.69
2023-02-16T04:14:21.342Z,19.65
2023-02-16T04:16:51.151Z,19.63
2023-02-16T04:19:20.751Z,19.62
2023-02-16T04:21:50.790Z,19.61
2023-02-16T04:24:20.593Z,19.61
2023-02-16T04:26:50.702Z,19.54
2023-02-16T04:29:20.657Z,19.55
2023-02-16T04:31:51.046Z,19.54
2023-02-16T04:34:21.146Z,19.52
2023-02-16T04:36:50.720Z,19.52
2023-02-16T04:39:21.467Z,19.48
2023-02-16T04:41:51.502Z,19.48
2023-02-16T04:44:21.230Z,19.45
2023-02-16T04:46:50.803Z,19.48
2023-02-16T04:49:20.886Z,19.48
2023-02-16T04:51:51.545Z,19.45
2023-02-16T04:54:21.339Z,19.39
2023-02-16T04:56:51.441Z,19.38
2023-02-16T04:59:21.252Z,19.31
2023-02-16T05:01:50.935Z,19.32
2023-02-16T05:04:22.064Z,19.31
2023-02-16T05:06:52.216Z,19.28
2023-02-16T05:09:22.299Z,19.22
2023-02-16T05:12:10.395Z,19.25
2023-02-16T05:14:43.401Z,19.24
2023-02-16T05:17:16.915Z,19.29
2023-02-16T05:19:50.740Z,19.28
2023-02-16T05:22:22.669Z,19.25
2023-02-16T05:24:53.197Z,19.24
2023-02-16T05:27:28.542Z,19.21
2023-02-16T05:29:59.380Z,19.17
2023-02-16T05:32:29.292Z,19.11
2023-02-16T05:34:59.238Z,19.08
2023-02-16T05:37:29.046Z,19.08
2023-02-16T05:39:58.735Z,19.04
2023-02-16T05:42:28.362Z,19.06
2023-02-16T05:44:58.106Z,18.98
2023-02-16T05:47:27.666Z,18.94
2023-02-16T05:49:57.714Z,18.93
2023-02-16T05:52:27.507Z,18.90
2023-02-16T05:54:57.515Z,18.88
2023-02-16T05:57:27.526Z,18.84
2023-02-16T05:59:57.447Z,18.87
2023-02-16T06:02:27.255Z,18.91
2023-02-16T06:04:56.838Z,18.91
2023-02-16T06:07:26.756Z,18.84
2023-02-16T06:09:56.347Z,18.81
2023-02-16T06:12:26.114Z,18.80
2023-02-16T06:14:58.024Z,18.78
2023-02-16T06:17:29.709Z,18.77
2023-02-16T06:19:59.433Z,18.71
2023-02-16T06:22:29.393Z,18.67
2023-02-16T06:24:59.135Z,18.66
2023-02-16T06:27:29.908Z,18.71
2023-02-16T06:29:59.864Z,18.66
2023-02-16T06:32:29.487Z,18.63
2023-02-16T06:34:59.291Z,18.60
2023-02-16T06:37:28.865Z,18.59
2023-02-16T06:39:58.785Z,18.57
2023-02-16T06:42:28.538Z,18.55
2023-02-16T06:44:58.334Z,18.53
2023-02-16T06:47:27.916Z,18.55
2023-02-16T06:49:59.135Z,18.50
2023-02-16T06:52:28.997Z,18.55
2023-02-16T06:54:58.945Z,18.55
2023-02-16T06:57:28.536Z,18.53
2023-02-16T06:59:58.457Z,18.52
2023-02-16T07:02:30.151Z,18.49
2023-02-16T07:04:59.729Z,18.47
2023-02-16T07:07:29.668Z,18.45
2023-02-16T07:09:59.812Z,18.50
2023-02-16T07:12:29.849Z,18.43
2023-02-16T07:14:59.851Z,18.40
2023-02-16T07:17:29.587Z,18.36
2023-02-16T07:20:00.082Z,18.33
2023-02-16T07:22:30.990Z,18.32
2023-02-16T07:25:01.871Z,18.32
2023-02-16T07:27:32.008Z,18.28
2023-02-16T07:30:01.836Z,18.28
2023-02-16T07:32:32.054Z,18.28
2023-02-16T07:35:02.042Z,18.26
2023-02-16T07:37:31.978Z,18.25
2023-02-16T07:40:01.786Z,18.25
2023-02-16T07:42:33.633Z,18.24
2023-02-16T07:45:05.807Z,18.21
2023-02-16T07:47:35.741Z,18.15
2023-02-16T07:50:06.292Z,18.18
2023-02-16T07:52:36.822Z,18.16
2023-02-16T07:55:07.079Z,18.18
2023-02-16T07:57:36.847Z,18.13
2023-02-16T08:00:08.926Z,18.15
2023-02-16T08:02:43.424Z,18.13
2023-02-16T08:05:13.210Z,18.15
2023-02-16T08:07:43.659Z,18.15
2023-02-16T08:10:17.456Z,18.08
2023-02-16T08:12:47.037Z,18.06
2023-02-16T08:15:17.775Z,18.04
2023-02-16T08:17:47.554Z,18.01
2023-02-16T08:20:17.215Z,17.99
2023-02-16T08:22:46.772Z,17.97
2023-02-16T08:25:17.136Z,17.97
2023-02-16T08:27:46.897Z,17.97
2023-02-16T08:30:19.413Z,17.92
2023-02-16T08:32:51.992Z,17.91
2023-02-16T08:35:23.195Z,17.89
2023-02-16T08:37:52.750Z,17.88
2023-02-16T08:40:26.023Z,17.88
2023-02-16T08:42:55.860Z,17.91
2023-02-16T08:45:25.825Z,17.91
2023-02-16T08:47:56.573Z,17.91
2023-02-16T08:50:26.307Z,17.88
2023-02-16T08:52:55.890Z,17.88
2023-02-16T08:55:27.186Z,17.88
2023-02-16T08:57:56.921Z,17.85
2023-02-16T09:00:36.714Z,17.84
2023-02-16T09:03:08.120Z,17.84
2023-02-16T09:05:38.101Z,17.89
2023-02-16T09:08:08.734Z,17.87
2023-02-16T09:10:38.733Z,17.84
2023-02-16T09:13:11.856Z,17.84
2023-02-16T09:15:44.058Z,17.79
2023-02-16T09:18:15.203Z,17.77
2023-02-16T09:20:47.004Z,17.79
2023-02-16T09:23:17.012Z,17.81
2023-02-16T09:25:46.948Z,17.75
2023-02-16T09:28:17.165Z,17.77
2023-02-16T09:30:47.025Z,17.79
2023-02-16T09:33:18.210Z,17.79
2023-02-16T09:35:47.982Z,17.85
2023-02-16T09:38:18.926Z,17.88
2023-02-16T09:40:49.471Z,17.98
2023-02-16T09:43:36.985Z,18.25
2023-02-16T09:46:12.858Z,18.61
2023-02-16T09:48:46.675Z,18.97
2023-02-16T09:51:36.526Z,19.32
2023-02-16T09:54:43.578Z,19.66
2023-02-16T09:57:44.364Z,19.98
2023-02-16T10:00:42.657Z,20.38
2023-02-16T10:03:15.328Z,20.58
2023-02-16T10:05:56.482Z,20.89
2023-02-16T10:08:31.074Z,21.15
2023-02-16T10:11:04.244Z,21.42
2023-02-16T10:13:50.709Z,21.63
2023-02-16T10:16:29.546Z,22.38
2023-02-16T10:19:00.466Z,22.92
2023-02-16T10:21:32.786Z,23.13
2023-02-16T10:24:08.050Z,23.44
2023-02-16T10:26:48.437Z,23.51
2023-02-16T10:29:23.587Z,23.76
2023-02-16T10:32:14.734Z,24.08
2023-02-16T10:34:51.959Z,24.02
2023-02-16T10:37:43.727Z,24.23
2023-02-16T10:41:02.575Z,24.49
2023-02-16T10:44:10.226Z,24.65
2023-02-16T10:46:45.823Z,24.65
2023-02-16T10:49:17.332Z,24.96
2023-02-16T10:51:51.472Z,25.23
2023-02-16T10:54:27.452Z,25.63
2023-02-16T10:57:05.233Z,25.97
2023-02-16T10:59:46.776Z,26.34
2023-02-16T11:02:21.096Z,26.38
2023-02-16T11:04:53.671Z,26.55
2023-02-16T11:07:25.853Z,26.76
2023-02-16T11:09:58.349Z,27.00
2023-02-16T11:12:43.629Z,27.54
2023-02-16T11:15:21.110Z,27.68
2023-02-16T11:17:58.380Z,27.74
2023-02-16T11:20:34.709Z,27.89
2023-02-16T11:23:26.501Z,27.37
2023-02-16T11:26:10.960Z,27.00
2023-02-16T11:28:46.201Z,26.96
2023-02-16T11:31:45.745Z,27.00
2023-02-16T11:34:23.134Z,26.51
2023-02-16T11:36:54.228Z,26.79
2023-02-16T11:39:31.931Z,26.95
2023-02-16T11:42:05.553Z,26.99
2023-02-16T11:44:36.984Z,27.17
2023-02-16T11:47:23.234Z,27.48
2023-02-16T11:50:20.039Z,27.64
2023-02-16T11:53:03.990Z,27.68
2023-02-16T11:55:45.906Z,27.88
2023-02-16T11:58:27.787Z,28.20
2023-02-16T12:01:10.111Z,29.05
2023-02-16T12:04:03.688Z,29.21
2023-02-16T12:06:55.066Z,29.62
2023-02-16T12:09:40.067Z,29.74
2023-02-16T12:12:21.048Z,29.72
2023-02-16T12:15:05.632Z,29.42
2023-02-16T12:17:56.136Z,28.93
2023-02-16T12:20:37.035Z,29.05
2023-02-16T12:23:35.356Z,29.99
2023-02-16T12:26:34.399Z,31.27
2023-02-16T12:29:36.839Z,30.91
2023-02-16T12:32:27.735Z,28.59
2023-02-16T12:35:14.058Z,28.56
2023-02-16T12:38:08.393Z,28.84
2023-02-16T12:41:10.117Z,29.53
2023-02-16T12:43:48.577Z,30.12
2023-02-16T12:46:33.742Z,30.68
2023-02-16T12:49:07.987Z,30.64
2023-02-16T12:51:55.407Z,30.54
2023-02-16T12:54:33.939Z,29.89
2023-02-16T12:57:11.861Z,28.73
2023-02-16T13:00:43.078Z,28.05
2023-02-16T13:03:18.968Z,27.37
2023-02-16T13:06:09.478Z,27.48
2023-02-16T13:09:07.893Z,27.94
2023-02-16T13:11:49.806Z,27.59
2023-02-16T13:14:23.349Z,27.00
2023-02-16T13:17:25.775Z,27.03
2023-02-16T13:19:55.777Z,26.93
2023-02-16T13:22:45.823Z,26.95
2023-02-16T13:25:36.556Z,28.32
2023-02-16T13:28:25.167Z,29.53
2023-02-16T13:31:07.666Z,29.96
2023-02-16T13:34:14.196Z,31.70
2023-02-16T13:37:10.462Z,33.14
2023-02-16T13:39:48.926Z,32.73
2023-02-16T13:42:20.762Z,32.79
2023-02-16T13:45:02.507Z,31.44
2023-02-16T13:47:40.070Z,30.42
2023-02-16T13:50:26.923Z,30.28
2023-02-16T13:52:59.769Z,31.08
2023-02-16T13:55:38.657Z,33.20
2023-02-16T13:58:14.114Z,34.44
2023-02-16T14:00:48.728Z,32.84
2023-02-16T14:03:22.286Z,32.21
2023-02-16T14:05:54.423Z,33.62
2023-02-16T14:08:29.258Z,34.13
2023-02-16T14:11:05.459Z,35.63
2023-02-16T14:13:40.898Z,35.71
2023-02-16T14:16:18.561Z,35.86
2023-02-16T14:19:17.473Z,34.26
2023-02-16T14:21:50.373Z,35.52
2023-02-16T14:24:32.355Z,37.25
2023-02-16T14:27:08.134Z,37.67
2023-02-16T14:30:14.864Z,37.33
2023-02-16T14:32:50.262Z,35.30
2023-02-16T14:35:39.923Z,36.54
2023-02-16T14:38:37.105Z,37.38
2023-02-16T14:41:09.241Z,38.52
2023-02-16T14:43:50.267Z,37.74
2023-02-16T14:46:44.809Z,37.60
2023-02-16T14:49:40.601Z,36.43
2023-02-16T14:52:38.232Z,35.79
2023-02-16T14:55:12.494Z,36.52
2023-02-16T14:57:45.928Z,36.50
2023-02-16T15:00:32.190Z,37.66
2023-02-16T15:03:03.037Z,36.89
2023-02-16T15:05:37.154Z,37.43
2023-02-16T15:08:26.476Z,35.19
2023-02-16T15:10:56.517Z,33.20
2023-02-16T15:13:32.372Z,33.89
2023-02-16T15:16:04.889Z,36.17
2023-02-16T15:18:41.600Z,37.14
2023-02-16T15:21:29.668Z,38.00
2023-02-16T15:24:01.682Z,37.93
2023-02-16T15:26:34.959Z,38.48
2023-02-16T15:29:28.094Z,38.31
2023-02-16T15:31:59.932Z,36.96
2023-02-16T15:34:36.770Z,38.39
2023-02-16T15:37:35.202Z,39.14
2023-02-16T15:40:28.518Z,39.64
2023-02-16T15:43:32.183Z,40.15
2023-02-16T15:46:04.879Z,36.50
2023-02-16T15:48:39.458Z,37.98
2023-02-16T15:51:13.011Z,36.75
2023-02-16T15:53:59.308Z,35.35
2023-02-16T15:56:46.369Z,38.39
2023-02-16T15:59:19.279Z,39.64
2023-02-16T16:01:49.673Z,39.46
2023-02-16T16:04:25.560Z,39.13
2023-02-16T16:06:56.376Z,38.85
2023-02-16T16:09:33.065Z,36.96
2023-02-16T16:12:06.917Z,36.74
2023-02-16T16:14:41.713Z,37.29
2023-02-16T16:17:16.727Z,35.89
2023-02-16T16:19:48.629Z,37.77
2023-02-16T16:22:40.492Z,38.03
2023-02-16T16:25:40.516Z,38.64
2023-02-16T16:28:14.962Z,38.89
2023-02-16T16:30:46.453Z,38.31
2023-02-16T16:33:17.546Z,38.51
2023-02-16T16:35:51.744Z,39.17
2023-02-16T16:38:27.097Z,39.26
2023-02-16T16:41:00.551Z,38.96
2023-02-16T16:43:36.508Z,38.89
2023-02-16T16:46:12.853Z,40.00
2023-02-16T16:48:58.046Z,40.11
2023-02-16T16:51:28.926Z,40.18
2023-02-16T16:54:03.219Z,40.69
2023-02-16T16:56:38.926Z,41.58
2023-02-16T16:59:09.735Z,40.35
2023-02-16T17:01:39.836Z,39.46
2023-02-16T17:04:09.519Z,40.32
2023-02-16T17:06:40.250Z,41.04
2023-02-16T17:09:10.261Z,41.45
2023-02-16T17:11:40.255Z,41.44
2023-02-16T17:14:15.526Z,41.81
2023-02-16T17:16:48.854Z,41.26
2023-02-16T17:19:20.962Z,39.64
2023-02-16T17:21:51.893Z,37.77
2023-02-16T17:24:22.792Z,39.54
2023-02-16T17:26:54.661Z,40.49
2023-02-16T17:29:24.382Z,40.80
2023-02-16T17:31:54.481Z,40.58
2023-02-16T17:34:30.421Z,40.21
2023-02-16T17:37:04.109Z,40.69
2023-02-16T17:39:34.305Z,40.69
2023-02-16T17:42:04.572Z,40.69
2023-02-16T17:44:34.328Z,37.52
2023-02-16T17:47:04.355Z,38.38
2023-02-16T17:49:34.437Z,39.49
2023-02-16T17:52:04.218Z,38.89
2023-02-16T17:54:33.845Z,39.63
2023-02-16T17:57:03.424Z,40.43
2023-02-16T17:59:35.629Z,41.10
2023-02-16T18:02:05.644Z,40.60
2023-02-16T18:04:37.207Z,40.79
2023-02-16T18:07:07.218Z,40.16
2023-02-16T18:09:36.804Z,39.92
2023-02-16T18:12:06.531Z,40.39
2023-02-16T18:14:37.324Z,40.69
2023-02-16T18:17:08.106Z,40.84
2023-02-16T18:19:37.996Z,40.58
2023-02-16T18:22:07.669Z,38.74
2023-02-16T18:24:37.450Z,37.53
2023-02-16T18:27:07.392Z,37.91
2023-02-16T18:29:37.451Z,37.16
2023-02-16T18:32:07.379Z,37.70
2023-02-16T18:34:38.646Z,39.03
2023-02-16T18:37:08.605Z,40.05
2023-02-16T18:39:38.179Z,39.67
2023-02-16T18:42:08.536Z,39.00
2023-02-16T18:44:38.444Z,38.23
2023-02-16T18:47:09.119Z,36.72
2023-02-16T18:49:38.872Z,36.23
2023-02-16T18:52:09.044Z,35.89
2023-02-16T18:54:39.068Z,35.63
2023-02-16T18:57:09.074Z,35.79
2023-02-16T18:59:39.107Z,35.46
2023-02-16T19:02:09.320Z,35.94
2023-02-16T19:04:39.213Z,35.08
2023-02-16T19:07:09.150Z,34.94
2023-02-16T19:09:38.739Z,35.65
2023-02-16T19:12:08.638Z,35.86
2023-02-16T19:14:38.380Z,36.20
2023-02-16T19:17:08.369Z,36.10
2023-02-16T19:19:39.050Z,36.29
2023-02-16T19:22:08.845Z,35.61
2023-02-16T19:24:38.478Z,35.21
2023-02-16T19:27:09.277Z,35.72
2023-02-16T19:29:39.328Z,36.15
2023-02-16T19:32:09.336Z,36.17
2023-02-16T19:34:40.237Z,35.51
2023-02-16T19:37:09.707Z,34.93
2023-02-16T19:39:39.491Z,34.46
2023-02-16T19:42:09.125Z,33.89
2023-02-16T19:44:41.084Z,33.33
2023-02-16T19:47:10.608Z,33.18
2023-02-16T19:49:41.540Z,32.09
2023-02-16T19:52:11.385Z,31.29
2023-02-16T19:54:41.109Z,30.35
2023-02-16T19:57:10.732Z,29.70
2023-02-16T19:59:41.412Z,29.41
2023-02-16T20:02:15.838Z,28.98
2023-02-16T20:04:46.403Z,28.56
2023-02-16T20:07:16.174Z,28.33
2023-02-16T20:09:46.004Z,27.89
2023-02-16T20:12:16.682Z,27.82
2023-02-16T20:14:47.465Z,27.59
2023-02-16T20:17:18.161Z,27.43
2023-02-16T20:19:47.983Z,27.16
2023-02-16T20:22:18.065Z,26.90
2023-02-16T20:24:47.895Z,26.93
2023-02-16T20:27:17.860Z,26.85
2023-02-16T20:29:47.434Z,26.73
2023-02-16T20:32:17.415Z,26.79
2023-02-16T20:34:47.275Z,26.76
2023-02-16T20:37:17.068Z,26.82
2023-02-16T20:39:48.761Z,27.00
2023-02-16T20:42:18.883Z,27.11
2023-02-16T20:44:48.464Z,27.20
2023-02-16T20:47:18.310Z,27.18
2023-02-16T20:49:48.460Z,27.13
2023-02-16T20:52:18.309Z,27.06
2023-02-16T20:54:48.124Z,27.03
2023-02-16T20:57:26.460Z,26.99
2023-02-16T20:59:57.270Z,27.07
2023-02-16T21:02:27.335Z,27.02
2023-02-16T21:04:57.286Z,26.93
2023-02-16T21:07:27.045Z,26.80
2023-02-16T21:09:59.874Z,26.76
2023-02-16T21:12:29.710Z,26.71
2023-02-16T21:14:59.457Z,26.66
2023-02-16T21:17:29.668Z,26.55
2023-02-16T21:19:59.524Z,26.42
2023-02-16T21:22:29.128Z,26.35
2023-02-16T21:24:59.123Z,26.21
2023-02-16T21:27:28.948Z,25.93
2023-02-16T21:29:58.801Z,26.02
2023-02-16T21:32:28.491Z,25.87
2023-02-16T21:34:58.107Z,26.08
2023-02-16T21:37:29.733Z,25.96
2023-02-16T21:40:17.318Z,25.91
2023-02-16T21:42:48.811Z,25.91
2023-02-16T21:45:19.007Z,25.87
2023-02-16T21:48:07.554Z,25.77
2023-02-16T21:50:41.554Z,25.76
2023-02-16T21:53:12.789Z,25.66
2023-02-16T21:56:01.326Z,25.46
2023-02-16T21:58:35.132Z,25.39
2023-02-16T22:01:05.524Z,25.35
2023-02-16T22:03:35.646Z,25.36
2023-02-16T22:06:07.298Z,25.38
2023-02-16T22:08:39.238Z,25.30
2023-02-16T22:11:12.466Z,25.18
2023-02-16T22:13:42.557Z,24.99
2023-02-16T22:16:18.201Z,24.89
2023-02-16T22:18:49.042Z,24.81
2023-02-16T22:21:18.946Z,24.59
2023-02-16T22:23:48.588Z,24.50
2023-02-16T22:26:32.376Z,24.46
2023-02-16T22:29:05.354Z,24.34
2023-02-16T22:31:36.365Z,24.31
2023-02-16T22:34:09.465Z,24.20
2023-02-16T22:36:39.828Z,24.17
2023-02-16T22:39:11.812Z,24.02
2023-02-16T22:41:41.416Z,24.05
2023-02-16T22:44:16.176Z,23.93
2023-02-16T22:46:46.279Z,23.93
2023-02-16T22:49:16.298Z,23.79
2023-02-16T22:51:46.120Z,23.66
2023-02-16T22:54:16.459Z,23.68
2023-02-16T22:56:46.370Z,23.68
2023-02-16T22:59:16.218Z,23.72
2023-02-16T23:01:46.054Z,23.68
2023-02-16T23:04:17.356Z,23.65
2023-02-16T23:06:48.184Z,23.52
2023-02-16T23:09:22.219Z,23.51
2023-02-16T23:11:52.285Z,23.50
2023-02-16T23:14:22.359Z,23.44
2023-02-16T23:16:55.543Z,23.34
2023-02-16T23:19:27.850Z,23.14
2023-02-16T23:21:57.347Z,23.10
2023-02-16T23:24:27.140Z,23.06
2023-02-16T23:26:57.595Z,23.06
2023-02-16T23:29:28.020Z,23.08
2023-02-16T23:31:57.832Z,23.10
2023-02-16T23:34:27.962Z,23.00
2023-02-16T23:36:57.836Z,22.92
2023-02-16T23:39:27.724Z,22.90
2023-02-16T23:41:57.910Z,22.82
2023-02-16T23:44:27.791Z,22.83
2023-02-16T23:46:57.578Z,22.77
2023-02-16T23:49:27.574Z,22.70
2023-02-16T23:51:57.364Z,22.63
2023-02-16T23:54:27.155Z,22.62
2023-02-16T23:56:56.920Z,22.66
2023-02-16T23:59:27.121Z,22.66
